Terminal Aerodrome Forecast
Issued by NWS

Home | Current Version | Previous Version | Text Only | Print | Product List | Glossary On
Versions: 1 2 3 4 5 6 7 8 9 10 11 12 13 14 15 16 17 18 19 20 21 22 23 24 25 26
088
FTUS41 KBUF 270858 AAA
TAFJHW
TAF AMD
KJHW 270858Z 2709/2806 17007KT 6SM BR VCSH OVC006
     FM271500 22007KT P6SM OVC007
     FM272100 26004KT P6SM BKN012
     FM272300 VRB03KT P6SM BKN012
      AMD LTD TO CLD VIS AND WIND=

USA.gov is the U.S. government's official web portal to all federal, state and local government web resources and services.